createdAt,value
2022-10-08T00:04:34.892Z,7.89
2022-10-08T00:09:36.991Z,7.85
2022-10-08T00:14:39.021Z,7.83
2022-10-08T00:19:40.486Z,7.8
2022-10-08T00:24:42.309Z,7.78
2022-10-08T00:29:44.143Z,7.72
2022-10-08T00:34:46.113Z,7.69
2022-10-08T00:39:47.645Z,7.67
2022-10-08T00:44:49.124Z,7.64
2022-10-08T00:49:51.044Z,7.61
2022-10-08T00:54:52.554Z,7.58
2022-10-08T00:59:54.132Z,7.56
2022-10-08T01:04:55.753Z,7.54
2022-10-08T01:09:57.419Z,7.52
2022-10-08T01:14:59.028Z,7.51
2022-10-08T01:20:00.991Z,7.48
2022-10-08T01:25:02.733Z,7.48
2022-10-08T01:30:04.020Z,7.46
2022-10-08T01:35:06.129Z,7.44
2022-10-08T01:40:07.774Z,7.43
2022-10-08T01:45:09.702Z,7.41
2022-10-08T01:50:11.817Z,7.4
2022-10-08T01:55:13.563Z,7.38
2022-10-08T02:00:15.275Z,7.37
2022-10-08T02:05:17.103Z,7.36
2022-10-08T02:10:18.365Z,7.35
2022-10-08T02:15:19.755Z,7.33
2022-10-08T02:20:20.944Z,7.32
2022-10-08T02:25:22.428Z,7.3
2022-10-08T02:30:24.442Z,7.29
2022-10-08T02:35:25.894Z,7.28
2022-10-08T02:40:27.888Z,7.25
2022-10-08T02:45:29.342Z,7.23
2022-10-08T02:50:31.149Z,7.21
2022-10-08T02:55:32.388Z,7.19
2022-10-08T03:00:33.962Z,7.16
2022-10-08T03:05:35.553Z,7.15
2022-10-08T03:10:37.693Z,7.12
2022-10-08T03:15:39.388Z,7.1
2022-10-08T03:20:40.976Z,7.08
2022-10-08T03:25:42.431Z,7.06
2022-10-08T03:30:44.143Z,7.05
2022-10-08T03:35:45.582Z,7.03
2022-10-08T03:40:47.893Z,7.02
2022-10-08T03:45:49.378Z,7.01
2022-10-08T03:50:51.412Z,7
2022-10-08T03:55:53.476Z,7
2022-10-08T04:01:20.898Z,7.02
2022-10-08T04:05:57.222Z,7.05
2022-10-08T04:11:07.308Z,7.11
2022-10-08T04:16:01.329Z,7.18
2022-10-08T04:21:11.393Z,7.24
2022-10-08T04:26:05.305Z,7.36
2022-10-08T04:31:07.340Z,7.4
2022-10-08T04:36:09.092Z,7.47
2022-10-08T04:41:12.154Z,7.66
2022-10-08T04:46:14.254Z,7.72
2022-10-08T04:51:16.296Z,7.77
2022-10-08T04:56:18.180Z,7.87
2022-10-08T05:01:19.522Z,7.92
2022-10-08T05:06:21.359Z,8.03
2022-10-08T05:11:22.582Z,8.08
2022-10-08T05:16:24.567Z,8.14
2022-10-08T05:21:26.673Z,8.18
2022-10-08T05:26:53.371Z,8.22
2022-10-08T05:31:30.147Z,8.24
2022-10-08T05:36:31.419Z,8.28
2022-10-08T05:41:43.746Z,8.29
2022-10-08T05:46:35.327Z,8.33
2022-10-08T05:52:24.925Z,8.51
2022-10-08T05:56:39.221Z,8.45
2022-10-08T06:01:40.582Z,8.5
2022-10-08T06:06:42.140Z,8.54
2022-10-08T06:11:43.983Z,8.64
2022-10-08T06:16:46.068Z,8.77
2022-10-08T06:21:48.165Z,8.92
2022-10-08T06:26:50.264Z,9.13
2022-10-08T06:36:53.322Z,9.6
2022-10-08T06:41:54.749Z,9.85
2022-10-08T06:46:56.881Z,10.22
2022-10-08T07:07:04.107Z,11.31
2022-10-08T07:27:09.183Z,12.01
2022-10-08T07:32:21.616Z,12.09
2022-10-08T07:37:12.856Z,12.2
2022-10-08T07:52:28.990Z,12.45
2022-10-08T08:02:31.484Z,12.65
2022-10-08T08:07:22.329Z,12.75
2022-10-08T08:12:35.698Z,12.82
2022-10-08T08:22:27.839Z,13.03
2022-10-08T08:27:29.355Z,13.16
2022-10-08T08:32:30.845Z,13.25
2022-10-08T08:37:32.847Z,13.37
2022-10-08T08:42:34.905Z,13.46
2022-10-08T08:47:47.617Z,13.62
2022-10-08T08:52:48.333Z,13.78
2022-10-08T08:57:39.392Z,13.85
2022-10-08T09:02:41.584Z,13.95
2022-10-08T09:07:43.101Z,14.13
2022-10-08T09:12:45.261Z,14.24
2022-10-08T09:17:46.172Z,14.42
2022-10-08T09:22:47.804Z,14.51
2022-10-08T09:27:48.838Z,14.62
2022-10-08T09:32:50.627Z,14.67
2022-10-08T09:37:52.139Z,14.76
2022-10-08T09:43:02.734Z,14.77
2022-10-08T09:47:55.008Z,14.87
2022-10-08T09:53:04.158Z,14.92
2022-10-08T09:58:04.630Z,14.98
2022-10-08T10:02:58.375Z,15
2022-10-08T10:08:00.581Z,15.04
2022-10-08T10:13:02.733Z,15.08
2022-10-08T10:18:04.247Z,15.11
2022-10-08T10:23:05.604Z,15.18
2022-10-08T10:28:07.086Z,15.23
2022-10-08T10:33:09.161Z,15.27
2022-10-08T10:38:12.039Z,15.41
2022-10-08T10:43:13.923Z,15.43
2022-10-08T10:48:15.562Z,15.46
2022-10-08T10:53:17.399Z,15.47
2022-10-08T10:58:19.081Z,15.43
2022-10-08T11:03:20.706Z,15.54
2022-10-08T11:08:22.325Z,15.5
2022-10-08T11:13:23.671Z,15.49
2022-10-08T11:18:25.656Z,15.42
2022-10-08T11:23:27.236Z,15.46
2022-10-08T11:28:29.537Z,15.47
2022-10-08T11:33:30.761Z,15.56
2022-10-08T11:38:32.088Z,15.57
2022-10-08T11:43:33.352Z,15.65
2022-10-08T11:48:34.885Z,15.65
2022-10-08T11:53:36.518Z,15.73
2022-10-08T11:58:38.562Z,15.62
2022-10-08T12:03:40.052Z,15.65
2022-10-08T12:08:42.309Z,15.66
2022-10-08T12:13:43.883Z,15.61
2022-10-08T12:18:45.229Z,15.51
2022-10-08T12:18:54.816Z,15.52
2022-10-08T12:23:56.052Z,15.48
2022-10-08T12:28:57.664Z,15.52
2022-10-08T12:33:58.779Z,15.57
2022-10-08T12:39:00.493Z,15.61
2022-10-08T12:44:02.043Z,15.65
2022-10-08T12:49:03.221Z,15.65
2022-10-08T12:54:04.849Z,15.63
2022-10-08T12:59:06.721Z,15.64
2022-10-08T13:04:08.857Z,15.53
2022-10-08T13:09:10.089Z,15.45
2022-10-08T13:14:12.157Z,15.36
2022-10-08T13:19:13.884Z,15.31
2022-10-08T13:24:15.307Z,15.11
2022-10-08T13:29:16.802Z,15.13
2022-10-08T13:34:18.355Z,15.13
2022-10-08T13:39:20.321Z,15.2
2022-10-08T13:44:21.936Z,15.15
2022-10-08T13:49:23.365Z,15.06
2022-10-08T13:54:25.182Z,14.96
2022-10-08T13:59:30.373Z,14.81
2022-10-08T14:04:28.178Z,14.74
2022-10-08T14:09:29.676Z,14.59
2022-10-08T14:14:31.136Z,14.53
2022-10-08T14:19:32.412Z,14.55
2022-10-08T14:24:33.830Z,14.55
2022-10-08T14:29:35.948Z,14.51
2022-10-08T14:34:37.234Z,14.45
2022-10-08T14:39:39.390Z,14.38
2022-10-08T14:44:40.746Z,14.31
2022-10-08T14:49:42.461Z,14.25
2022-10-08T14:54:44.207Z,14.2
2022-10-08T14:59:46.299Z,14.2
2022-10-08T15:04:47.835Z,14.15
2022-10-08T15:09:49.586Z,14.16
2022-10-08T15:14:51.062Z,14.14
2022-10-08T15:20:40.660Z,14.29
2022-10-08T15:24:53.980Z,14.15
2022-10-08T15:29:55.359Z,14.09
2022-10-08T15:34:56.616Z,14.04
2022-10-08T15:39:58.520Z,14.02
2022-10-08T15:45:00.392Z,13.98
2022-10-08T15:50:01.640Z,13.9
2022-10-08T15:55:03.634Z,13.87
2022-10-08T16:00:05.106Z,13.79
2022-10-08T16:05:06.694Z,13.76
2022-10-08T16:10:08.344Z,13.71
2022-10-08T16:15:09.957Z,13.68
2022-10-08T16:20:11.744Z,13.68
2022-10-08T16:25:13.815Z,13.6
2022-10-08T16:30:15.645Z,13.52
2022-10-08T16:36:05.247Z,13.6
2022-10-08T16:40:18.836Z,13.36
2022-10-08T16:45:20.712Z,13.24
2022-10-08T16:50:22.504Z,13.15
2022-10-08T16:55:24.125Z,13.05
2022-10-08T17:00:25.725Z,12.9
2022-10-08T17:05:27.639Z,12.86
2022-10-08T17:10:41.011Z,12.76
2022-10-08T17:15:31.607Z,12.71
2022-10-08T17:20:44.643Z,12.63
2022-10-08T17:25:35.078Z,12.6
2022-10-08T17:30:36.723Z,12.51
2022-10-08T17:35:38.050Z,12.48
2022-10-08T17:41:27.691Z,12.6
2022-10-08T17:45:41.441Z,12.39
2022-10-08T17:50:42.884Z,12.33
2022-10-08T17:55:45.152Z,12.23
2022-10-08T18:00:46.497Z,12.17
2022-10-08T18:05:48.069Z,12.1
2022-10-08T18:10:49.539Z,12.02
2022-10-08T18:15:50.843Z,11.92
2022-10-08T18:20:52.892Z,11.78
2022-10-08T18:25:54.517Z,11.64
2022-10-08T18:30:56.784Z,11.48
2022-10-08T18:35:58.182Z,11.4
2022-10-08T18:40:59.821Z,11.26
2022-10-08T18:46:01.715Z,11.19
2022-10-08T18:51:03.090Z,11.06
2022-10-08T18:56:04.615Z,10.98
2022-10-08T19:01:05.918Z,10.83
2022-10-08T19:06:07.303Z,10.73
2022-10-08T19:11:09.213Z,10.6
2022-10-08T19:16:11.066Z,10.51
2022-10-08T19:21:12.803Z,10.41
2022-10-08T19:26:14.044Z,10.34
2022-10-08T19:31:16.356Z,10.21
2022-10-08T19:36:17.557Z,10.12
2022-10-08T19:41:19.099Z,9.99
2022-10-08T19:46:21.053Z,9.93
2022-10-08T19:51:23.023Z,9.83
2022-10-08T19:56:25.125Z,9.78
2022-10-08T20:01:26.928Z,9.68
2022-10-08T20:06:28.386Z,9.64
2022-10-08T20:12:18.035Z,9.75
2022-10-08T20:16:32.480Z,9.51
2022-10-08T20:21:33.613Z,9.43
2022-10-08T20:26:35.124Z,9.31
2022-10-08T20:31:37.108Z,9.28
2022-10-08T20:37:26.685Z,9.35
2022-10-08T20:41:40.648Z,9.14
2022-10-08T20:46:42.575Z,9.05
2022-10-08T20:51:44.651Z,9.01
2022-10-08T20:56:46.833Z,8.91
2022-10-08T21:01:49.076Z,8.82
2022-10-08T21:06:50.980Z,8.75
2022-10-08T21:11:53.038Z,8.67
2022-10-08T21:16:54.570Z,8.67
2022-10-08T21:22:44.175Z,8.81
2022-10-08T22:12:13.539Z,7.97
2022-10-08T22:27:18.139Z,7.8
2022-10-08T22:32:28.444Z,7.75
2022-10-08T22:37:21.299Z,7.75
2022-10-08T22:42:23.434Z,7.72
2022-10-08T22:47:35.023Z,7.69
2022-10-08T22:57:27.658Z,7.61
2022-10-08T23:02:29.418Z,7.55
2022-10-08T23:07:30.842Z,7.5
2022-10-08T23:12:33.574Z,7.5
2022-10-08T23:17:36.236Z,7.53
2022-10-08T23:22:37.553Z,7.39
2022-10-08T23:28:27.321Z,7.52
2022-10-08T23:32:41.176Z,7.31
2022-10-08T23:37:43.191Z,7.2
2022-10-08T23:42:44.456Z,7.16
2022-10-08T23:47:46.462Z,7.1
2022-10-08T23:52:47.994Z,7.04
2022-10-08T23:57:49.001Z,6.97
